Londerzeel, Belgium
Current Conditions -  °F | °C
As of 5:20 PM on Monday 24 Nov 2014 (Local Time) from EBBR Reporting Station
Few Clouds Few Clouds  
Wind Chill: 46°   Ceiling: Unl
Heat Index: 46°   Visibility: 6mi
Dew Point: 36°   Wind: 2mph
Humidity: 66%   Direction: 80°E
Pressure: 30.3"   Gusts: NA
Location:  51°N, 4.3°E
Report Text: EBBR 241620Z 08002KT 9999 FEW030 08/02 Q1026 NOSIG
Loading
Personal Weather Stations






























Interactive Weather Map New forecast layout! Learn more

10-Day Weather Forecast

Advertisements
Track Severe Weather on mobile